Meteopurmerend
purmerend
Purmerend - Baaienwijk



My webcam  My webcam


Onweer radar Meer informatie blitzortung!


Regen radar Meer informatie rain snow radar


Bezoek onze andere website:

CandyAppleRed WebdesignWebdesign Purmerend Candy Apple Red

MeteopurmerendBlog

Template documentation
and downloads



Het weer levert geen direct gevaar op.    Er zijn geen waarschuwingen afgegeven.

METAR rapporten vliegvelden

   
EHAM - Amsterdam
Gewijzigd: 12-12-2018 17:25
Grotendeels bewolkt  
Grotendeels bewolkt  
   Wind: Oosten 14.8 km/h
Wind: Oosten 14.8 km/h
Temperatuur: 4°C
Voelt als: 1°C
Dauwpunt: 0°C
Vochtigheid: 75%
Barometer: 1025 hPa
Bewolking: Mostly Cloudy
Zicht: meer dan 10 km
Bewolking: Grotendeels bewolkt 2700 ft
EHAM 121625Z 10008KT 070V140 9999 BKN027 04/M00 Q1025 NOSIG
EHRD - Rotterdam
Gewijzigd: 12-12-2018 17:25
Bewolking  
Bewolking  
   Wind: Oosten 16.7 km/h
Wind: Oosten 16.7 km/h
Temperatuur: 4°C
Voelt als: 0°C
Dauwpunt: 0°C
Vochtigheid: 75%
Barometer: 1025 hPa
Bewolking: Overcast
Zicht: meer dan 10 km
Bewolking: Bewolking 2900 ft
EHRD 121625Z AUTO 09009KT 060V130 9999 OVC029 04/00 Q1025 NOSIG
EHLE - Lelystad
Gewijzigd: 01-01-1970 01:00
Verouderd
  
  
   Wind: Kalm
Wind: Kalm
EHBK - Maastricht
Gewijzigd: 12-12-2018 17:25
Helder  
Helder  
   Wind: NO 7.4 km/h
Wind: NO 7.4 km/h
Temperatuur: 1°C
Voelt als: -1°C
Dauwpunt: -1°C
Vochtigheid: 87%
Barometer: 1023 hPa
Bewolking: Clear
Zicht: meer dan 10 km
Bewolking: Helder ft
EHBK 121625Z AUTO 05004KT 9999 NCD 01/M01 Q1023 NOSIG
ELLX - Luxemburg
Gewijzigd: 12-12-2018 17:20
Bewolking  
Bewolking  
   Wind: ONO 11.1 km/h
Wind: ONO 11.1 km/h
Temperatuur: 2°C
Voelt als: -1°C
Dauwpunt: -1°C
Vochtigheid: 81%
Barometer: 1021 hPa
Bewolking: Overcast
Zicht: meer dan 10 km
Bewolking: Bewolking 4100 ft
ELLX 121620Z AUTO 06006KT 9999 OVC041/// 02/M01 Q1021 NOSIG
EBOS - Oostende
Gewijzigd: 12-12-2018 17:20
Licht bewolkt  
Licht bewolkt  
   Wind: ONO 13 km/h
Wind: ONO 13 km/h
Temperatuur: 2°C
Voelt als: -2°C
Dauwpunt: 0°C
Vochtigheid: 87%
Barometer: 1024 hPa
Bewolking: Few Clouds
Zicht: meer dan 10 km
Bewolking: Licht bewolkt 2000 ft
EBOS 121620Z 07007KT 9999 FEW020 02/M00 Q1024 NOSIG

Script ontwikkeld door  Saratoga-weather.org Aangepast voor de template door  Weerstation Leuven

U vindt ons ook hier:

UK Metoffice

European Weather Network

Weather Underground

AWEKAS

Citizen Weather Observer Program (CWOP)

HAMweather, WeatherForYou, PWS Weather

Apparatuur in gebruik:

Weerstation
Davis Vue

Weerprogramma
Meteobridge

Weercomputer
QR code

Webleverancier
Wned

Davis Vue

Meteobridge

QR code

Wned